Time;durP1;ratioP1;P1;durP2;ratioP2;P2;SDS_P1;SDS_P2;PMS_P1;PMS_P2;Temp;Humidity;BMP_temperature;BMP_pressure;BME280_temperature;BME280_humidity;BME280_pressure;Samples;Min_cycle;Max_cycle;Signal;HPM_P1;HPM_P2
2023/04/27 00:01:25;;;;;;;0.00;0.00;;;;;;;;;;4788510;30;20023;-75
2023/04/27 00:03:51;;;;;;;0.00;0.00;;;;;;;;;;4787844;30;20039;-62
2023/04/27 00:06:17;;;;;;;0.00;0.00;;;;;;;;;;4787279;30;20782;-66
2023/04/27 00:08:43;;;;;;;0.00;0.00;;;;;;;;;;4787415;30;20492;-62
2023/04/27 00:11:09;;;;;;;0.00;0.00;;;;;;;;;;4787799;30;20054;-62
2023/04/27 00:13:35;;;;;;;0.00;0.00;;;;;;;;;;4787848;30;20031;-62
2023/04/27 00:16:02;;;;;;;0.00;0.00;;;;;;;;;;4787544;30;20046;-64
2023/04/27 00:18:29;;;;;;;0.00;0.00;;;;;;;;;;4787770;30;20031;-63
2023/04/27 00:20:56;;;;;;;0.00;0.00;;;;;;;;;;4787692;30;20031;-61
2023/04/27 00:23:22;;;;;;;0.00;0.00;;;;;;;;;;4787774;30;20067;-65
2023/04/27 00:25:48;;;;;;;0.00;0.00;;;;;;;;;;4787565;30;20024;-62
2023/04/27 00:28:14;;;;;;;0.00;0.00;;;;;;;;;;4787622;30;20042;-69
2023/04/27 00:30:40;;;;;;;0.00;0.00;;;;;;;;;;4787623;29;20031;-76
2023/04/27 00:33:06;;;;;;;0.00;0.00;;;;;;;;;;4788050;30;20092;-72
2023/04/27 00:35:33;;;;;;;0.00;0.00;;;;;;;;;;4787719;30;20117;-71
2023/04/27 00:37:59;;;;;;;0.00;0.00;;;;;;;;;;4787613;30;20114;-74
2023/04/27 00:40:25;;;;;;;0.00;0.00;;;;;;;;;;4787939;30;20035;-64
2023/04/27 00:42:51;;;;;;;0.00;0.00;;;;;;;;;;4787735;30;20084;-65
2023/04/27 00:45:17;;;;;;;0.00;0.00;;;;;;;;;;4787877;30;20028;-62
2023/04/27 00:47:43;;;;;;;0.00;0.00;;;;;;;;;;4787738;30;20122;-64
2023/04/27 00:50:10;;;;;;;0.00;0.00;;;;;;;;;;4787455;30;20503;-63
2023/04/27 00:52:37;;;;;;;0.00;0.00;;;;;;;;;;4787796;30;20027;-77
2023/04/27 00:55:03;;;;;;;0.00;0.00;;;;;;;;;;4787281;30;20093;-63
2023/04/27 00:57:30;;;;;;;0.00;0.00;;;;;;;;;;4787465;30;20488;-65
2023/04/27 00:59:56;;;;;;;0.00;0.00;;;;;;;;;;4787185;29;20031;-61
2023/04/27 01:02:22;;;;;;;0.00;0.00;;;;;;;;;;4787285;30;20039;-71
2023/04/27 01:04:49;;;;;;;0.00;0.00;;;;;;;;;;4787321;30;20031;-70
2023/04/27 01:07:15;;;;;;;0.00;0.00;;;;;;;;;;4787285;30;20060;-64
2023/04/27 01:09:42;;;;;;;0.00;0.00;;;;;;;;;;4786757;30;20051;-76
2023/04/27 01:12:08;;;;;;;0.00;0.00;;;;;;;;;;4787111;30;20046;-64
2023/04/27 01:14:35;;;;;;;0.00;0.00;;;;;;;;;;4787182;30;20504;-71
2023/04/27 01:17:01;;;;;;;0.00;0.00;;;;;;;;;;4787005;30;20039;-64
2023/04/27 01:19:27;;;;;;;0.00;0.00;;;;;;;;;;4787141;30;20124;-67
2023/04/27 01:21:54;;;;;;;0.00;0.00;;;;;;;;;;4786932;30;20101;-60
2023/04/27 01:24:20;;;;;;;0.00;0.00;;;;;;;;;;4786887;30;20061;-72
2023/04/27 01:26:46;;;;;;;0.00;0.00;;;;;;;;;;4786680;30;20037;-72
2023/04/27 01:29:12;;;;;;;0.00;0.00;;;;;;;;;;4786977;30;20373;-75
2023/04/27 01:31:38;;;;;;;0.00;0.00;;;;;;;;;;4786735;30;20046;-62
2023/04/27 01:34:04;;;;;;;0.00;0.00;;;;;;;;;;4786564;30;20031;-62
2023/04/27 01:36:31;;;;;;;0.00;0.00;;;;;;;;;;4786615;30;20492;-64
2023/04/27 01:38:57;;;;;;;0.00;0.00;;;;;;;;;;4786745;30;20047;-63
2023/04/27 01:41:23;;;;;;;0.00;0.00;;;;;;;;;;4786857;30;20078;-65
2023/04/27 01:43:49;;;;;;;0.00;0.00;;;;;;;;;;4786534;30;20047;-64
2023/04/27 01:46:15;;;;;;;0.00;0.00;;;;;;;;;;4786339;30;20093;-76
2023/04/27 01:48:41;;;;;;;0.00;0.00;;;;;;;;;;4786544;30;20104;-62
2023/04/27 01:51:07;;;;;;;0.00;0.00;;;;;;;;;;4786717;30;20062;-67
2023/04/27 01:53:34;;;;;;;0.00;0.00;;;;;;;;;;4786559;30;20050;-68
2023/04/27 01:56:00;;;;;;;0.00;0.00;;;;;;;;;;4786712;30;20027;-62
2023/04/27 01:58:26;;;;;;;0.00;0.00;;;;;;;;;;4786550;30;20461;-64
2023/04/27 02:00:52;;;;;;;0.00;0.00;;;;;;;;;;4786976;30;20354;-62
2023/04/27 02:03:18;;;;;;;0.00;0.00;;;;;;;;;;4788350;30;20051;-63
2023/04/27 02:05:45;;;;;;;0.00;0.00;;;;;;;;;;4786609;30;20389;-63
2023/04/27 02:08:12;;;;;;;0.00;0.00;;;;;;;;;;4786086;30;20031;-63
2023/04/27 02:10:38;;;;;;;0.00;0.00;;;;;;;;;;4786147;30;20150;-61
2023/04/27 02:13:04;;;;;;;0.00;0.00;;;;;;;;;;4786199;30;20405;-61
2023/04/27 02:15:30;;;;;;;0.00;0.00;;;;;;;;;;4786241;30;20084;-74
2023/04/27 02:17:57;;;;;;;0.00;0.00;;;;;;;;;;4786069;30;20031;-61
2023/04/27 02:20:23;;;;;;;0.00;0.00;;;;;;;;;;4786170;30;20023;-61
2023/04/27 02:22:49;;;;;;;0.00;0.00;;;;;;;;;;4786162;30;20074;-61
2023/04/27 02:25:15;;;;;;;0.00;0.00;;;;;;;;;;4785973;30;20023;-74
2023/04/27 02:27:42;;;;;;;0.00;0.00;;;;;;;;;;4785978;30;20024;-69
2023/04/27 02:30:08;;;;;;;0.00;0.00;;;;;;;;;;4785779;30;20035;-64
2023/04/27 02:32:35;;;;;;;0.00;0.00;;;;;;;;;;4786167;30;20050;-64
2023/04/27 02:35:01;;;;;;;0.00;0.00;;;;;;;;;;4786157;30;20074;-61
2023/04/27 02:37:27;;;;;;;0.00;0.00;;;;;;;;;;4786053;30;20035;-63
2023/04/27 02:39:53;;;;;;;0.00;0.00;;;;;;;;;;4785338;30;20494;-64
2023/04/27 02:42:19;;;;;;;0.00;0.00;;;;;;;;;;4785799;30;20126;-73
2023/04/27 02:44:46;;;;;;;0.00;0.00;;;;;;;;;;4785728;30;20031;-72
2023/04/27 02:47:12;;;;;;;0.00;0.00;;;;;;;;;;4785637;30;20106;-69
2023/04/27 02:49:38;;;;;;;0.00;0.00;;;;;;;;;;4785813;30;20088;-61
2023/04/27 02:52:04;;;;;;;0.00;0.00;;;;;;;;;;4785799;30;20027;-61
2023/04/27 02:54:31;;;;;;;0.00;0.00;;;;;;;;;;4785745;30;20548;-61
2023/04/27 02:56:57;;;;;;;0.00;0.00;;;;;;;;;;4785624;30;20028;-72
2023/04/27 02:59:23;;;;;;;0.00;0.00;;;;;;;;;;4785476;30;20070;-60
2023/04/27 03:01:49;;;;;;;0.00;0.00;;;;;;;;;;4785575;30;20043;-60
2023/04/27 03:04:16;;;;;;;0.00;0.00;;;;;;;;;;4785697;30;20178;-60
2023/04/27 03:06:42;;;;;;;0.00;0.00;;;;;;;;;;4785627;30;20046;-61
2023/04/27 03:09:11;;;;;;;0.00;0.00;;;;;;;;;;4785452;30;20103;-70
2023/04/27 03:11:38;;;;;;;0.00;0.00;;;;;;;;;;4785644;30;20496;-62
2023/04/27 03:14:04;;;;;;;0.00;0.00;;;;;;;;;;4785728;30;20054;-63
2023/04/27 03:16:34;;;;;;;0.00;0.00;;;;;;;;;;4785708;30;20609;-64
2023/04/27 03:19:00;;;;;;;0.00;0.00;;;;;;;;;;4785592;30;20153;-62
2023/04/27 03:21:27;;;;;;;0.00;0.00;;;;;;;;;;4785750;30;20038;-62
2023/04/27 03:23:53;;;;;;;0.00;0.00;;;;;;;;;;4787192;29;20039;-70
2023/04/27 03:26:19;;;;;;;0.00;0.00;;;;;;;;;;4789108;30;20038;-68
2023/04/27 03:28:45;;;;;;;0.00;0.00;;;;;;;;;;4788950;30;20050;-68
2023/04/27 03:31:13;;;;;;;0.00;0.00;;;;;;;;;;4789080;30;20127;-61
2023/04/27 03:33:40;;;;;;;0.00;0.00;;;;;;;;;;4788823;30;20031;-70
2023/04/27 03:36:06;;;;;;;0.00;0.00;;;;;;;;;;4789053;30;20031;-63
2023/04/27 03:38:32;;;;;;;0.00;0.00;;;;;;;;;;4788669;30;20035;-62
2023/04/27 03:40:58;;;;;;;0.00;0.00;;;;;;;;;;4788775;30;20106;-63
2023/04/27 03:43:25;;;;;;;0.00;0.00;;;;;;;;;;4788592;30;20039;-71
2023/04/27 03:45:51;;;;;;;0.00;0.00;;;;;;;;;;4788786;30;20100;-62
2023/04/27 03:48:18;;;;;;;0.00;0.00;;;;;;;;;;4788511;30;20084;-61
2023/04/27 03:50:45;;;;;;;0.00;0.00;;;;;;;;;;4788586;30;20035;-71
2023/04/27 03:53:11;;;;;;;0.00;0.00;;;;;;;;;;4788705;30;20118;-62
2023/04/27 03:55:38;;;;;;;0.00;0.00;;;;;;;;;;4788139;30;20132;-70
2023/04/27 03:58:04;;;;;;;0.00;0.00;;;;;;;;;;4788307;30;20051;-64
2023/04/27 04:00:30;;;;;;;0.00;0.00;;;;;;;;;;4788347;30;20050;-75
2023/04/27 04:02:56;;;;;;;0.00;0.00;;;;;;;;;;4788105;30;20051;-71
2023/04/27 04:05:22;;;;;;;0.00;0.00;;;;;;;;;;4788262;30;20085;-67
2023/04/27 04:07:48;;;;;;;0.00;0.00;;;;;;;;;;4787882;30;20100;-75
2023/04/27 04:10:15;;;;;;;0.00;0.00;;;;;;;;;;4787919;30;20043;-63
2023/04/27 04:12:41;;;;;;;0.00;0.00;;;;;;;;;;4771597;30;20136;-74
2023/04/27 04:15:07;;;;;;;0.00;0.00;;;;;;;;;;4788110;30;20400;-70
2023/04/27 04:17:33;;;;;;;0.00;0.00;;;;;;;;;;4787979;30;20026;-67
2023/04/27 04:20:00;;;;;;;0.00;0.00;;;;;;;;;;4788198;30;20035;-69
2023/04/27 04:22:26;;;;;;;0.00;0.00;;;;;;;;;;4787993;30;20120;-72
2023/04/27 04:24:52;;;;;;;0.00;0.00;;;;;;;;;;4788039;30;20046;-74
2023/04/27 04:27:18;;;;;;;0.00;0.00;;;;;;;;;;4787841;30;20024;-75
2023/04/27 04:29:45;;;;;;;0.00;0.00;;;;;;;;;;4788118;30;20397;-76
2023/04/27 04:32:11;;;;;;;0.00;0.00;;;;;;;;;;4787718;30;20058;-76
2023/04/27 04:34:38;;;;;;;0.00;0.00;;;;;;;;;;4786674;29;20115;-68
2023/04/27 04:37:04;;;;;;;0.00;0.00;;;;;;;;;;4787112;30;20034;-66
2023/04/27 04:39:32;;;;;;;0.00;0.00;;;;;;;;;;4787895;30;20040;-78
2023/04/27 04:41:58;;;;;;;0.00;0.00;;;;;;;;;;4787751;30;20107;-64
2023/04/27 04:44:24;;;;;;;0.00;0.00;;;;;;;;;;4787671;30;20039;-77
2023/04/27 04:46:50;;;;;;;0.00;0.00;;;;;;;;;;4786940;30;20023;-70
2023/04/27 04:49:16;;;;;;;0.00;0.00;;;;;;;;;;4787301;30;20031;-79
2023/04/27 04:51:51;;;;;;;0.00;0.00;;;;;;;;;;4787041;30;20034;-65
2023/04/27 04:54:17;;;;;;;0.00;0.00;;;;;;;;;;4787822;29;20085;-64
2023/04/27 04:56:43;;;;;;;0.00;0.00;;;;;;;;;;4805149;29;20035;-65
2023/04/27 04:59:09;;;;;;;0.00;0.00;;;;;;;;;;4805350;29;20035;-69
2023/04/27 05:01:35;;;;;;;0.00;0.00;;;;;;;;;;4805612;29;20168;-67
2023/04/27 05:04:01;;;;;;;0.00;0.00;;;;;;;;;;4805211;29;20043;-65
2023/04/27 05:06:28;;;;;;;0.00;0.00;;;;;;;;;;4805342;29;20038;-72
2023/04/27 05:08:54;;;;;;;0.00;0.00;;;;;;;;;;4805256;29;20049;-70
2023/04/27 05:11:21;;;;;;;0.00;0.00;;;;;;;;;;4805265;29;20031;-74
2023/04/27 05:13:47;;;;;;;0.00;0.00;;;;;;;;;;4805079;29;20115;-77
2023/04/27 05:16:13;;;;;;;0.00;0.00;;;;;;;;;;4805166;29;20103;-76
2023/04/27 05:18:39;;;;;;;0.00;0.00;;;;;;;;;;4804755;29;20031;-75
2023/04/27 05:21:05;;;;;;;0.00;0.00;;;;;;;;;;4804948;29;20392;-74
2023/04/27 05:23:31;;;;;;;0.00;0.00;;;;;;;;;;4804661;29;20448;-76
2023/04/27 05:25:57;;;;;;;0.00;0.00;;;;;;;;;;4805265;29;20460;-63
2023/04/27 05:28:23;;;;;;;0.00;0.00;;;;;;;;;;4804938;29;20077;-77
2023/04/27 05:30:49;;;;;;;0.00;0.00;;;;;;;;;;4804835;29;20054;-69
2023/04/27 05:33:15;;;;;;;0.00;0.00;;;;;;;;;;4804157;29;20102;-62
2023/04/27 05:35:41;;;;;;;0.00;0.00;;;;;;;;;;4775652;30;20550;-65
2023/04/27 05:38:08;;;;;;;0.00;0.00;;;;;;;;;;4783692;30;20110;-79
2023/04/27 05:40:34;;;;;;;0.00;0.00;;;;;;;;;;4783335;30;20054;-75
2023/04/27 05:43:04;;;;;;;0.00;0.00;;;;;;;;;;4776196;30;20485;-79
2023/04/27 05:45:30;;;;;;;0.00;0.00;;;;;;;;;;4772891;30;20024;-81
2023/04/27 05:47:56;;;;;;;0.00;0.00;;;;;;;;;;4768208;30;20032;-77
2023/04/27 05:50:22;;;;;;;0.00;0.00;;;;;;;;;;4768641;30;20024;-72
2023/04/27 05:52:48;;;;;;;0.00;0.00;;;;;;;;;;4768265;30;20036;-71
2023/04/27 05:55:14;;;;;;;0.00;0.00;;;;;;;;;;4768516;30;20035;-71
2023/04/27 05:57:40;;;;;;;0.00;0.00;;;;;;;;;;4768339;30;20023;-65
2023/04/27 06:00:09;;;;;;;0.00;0.00;;;;;;;;;;4768235;30;20440;-70
2023/04/27 06:02:35;;;;;;;0.00;0.00;;;;;;;;;;4768195;30;20482;-64
2023/04/27 06:05:02;;;;;;;0.00;0.00;;;;;;;;;;4767896;30;20035;-63
2023/04/27 06:07:28;;;;;;;0.00;0.00;;;;;;;;;;4768251;30;20059;-73
2023/04/27 06:09:54;;;;;;;0.00;0.00;;;;;;;;;;4767752;30;20088;-69
2023/04/27 06:12:20;;;;;;;0.00;0.00;;;;;;;;;;4768317;30;20032;-70
2023/04/27 06:14:46;;;;;;;0.00;0.00;;;;;;;;;;4773554;30;20028;-70
2023/04/27 06:17:12;;;;;;;0.00;0.00;;;;;;;;;;4783364;30;20039;-70
2023/04/27 06:19:38;;;;;;;0.00;0.00;;;;;;;;;;4785731;30;20027;-63
2023/04/27 06:22:04;;;;;;;0.00;0.00;;;;;;;;;;4777631;30;20537;-65
2023/04/27 06:24:31;;;;;;;0.00;0.00;;;;;;;;;;4776675;30;20059;-67
2023/04/27 06:26:57;;;;;;;0.00;0.00;;;;;;;;;;4785794;30;20028;-63
2023/04/27 06:29:23;;;;;;;0.00;0.00;;;;;;;;;;4785726;30;20122;-63
2023/04/27 06:31:49;;;;;;;0.00;0.00;;;;;;;;;;4785765;30;20443;-60
2023/04/27 06:34:15;;;;;;;0.00;0.00;;;;;;;;;;4785719;30;20489;-64
2023/04/27 06:36:41;;;;;;;0.00;0.00;;;;;;;;;;4769019;30;20412;-69
2023/04/27 06:39:07;;;;;;;0.00;0.00;;;;;;;;;;4785219;30;20071;-61
2023/04/27 06:41:33;;;;;;;0.00;0.00;;;;;;;;;;4785753;30;20042;-64
2023/04/27 06:43:59;;;;;;;0.00;0.00;;;;;;;;;;4785495;30;20054;-61
2023/04/27 06:46:26;;;;;;;0.00;0.00;;;;;;;;;;4785479;30;20024;-61
2023/04/27 06:48:52;;;;;;;0.00;0.00;;;;;;;;;;4785604;30;20039;-65
2023/04/27 06:51:18;;;;;;;0.00;0.00;;;;;;;;;;4785283;30;20067;-68
2023/04/27 06:53:44;;;;;;;0.00;0.00;;;;;;;;;;4785388;30;20035;-61
2023/04/27 06:56:11;;;;;;;0.00;0.00;;;;;;;;;;4785542;30;20047;-68
2023/04/27 06:58:37;;;;;;;0.00;0.00;;;;;;;;;;4786571;29;20037;-69
2023/04/27 07:01:04;;;;;;;0.00;0.00;;;;;;;;;;4788731;30;20537;-69
2023/04/27 07:03:30;;;;;;;0.00;0.00;;;;;;;;;;4789037;30;20514;-69
2023/04/27 07:05:58;;;;;;;0.00;0.00;;;;;;;;;;4789006;30;20392;-61
2023/04/27 07:08:24;;;;;;;0.00;0.00;;;;;;;;;;4788818;30;20023;-66
2023/04/27 07:10:50;;;;;;;0.00;0.00;;;;;;;;;;4789281;30;20416;-61
2023/04/27 07:13:16;;;;;;;0.00;0.00;;;;;;;;;;4789019;30;20038;-65
2023/04/27 07:15:42;;;;;;;0.00;0.00;;;;;;;;;;4789123;30;20442;-68
2023/04/27 07:18:08;;;;;;;0.00;0.00;;;;;;;;;;4788975;30;20027;-65
2023/04/27 07:20:34;;;;;;;0.00;0.00;;;;;;;;;;4789111;30;20095;-67
2023/04/27 07:23:00;;;;;;;0.00;0.00;;;;;;;;;;4788765;30;20035;-65
2023/04/27 07:25:26;;;;;;;0.00;0.00;;;;;;;;;;4788711;30;20034;-69
2023/04/27 07:27:53;;;;;;;0.00;0.00;;;;;;;;;;4789051;30;20031;-71
2023/04/27 07:30:20;;;;;;;0.00;0.00;;;;;;;;;;4789027;30;20106;-66
2023/04/27 07:32:52;;;;;;;0.00;0.00;;;;;;;;;;4788701;30;20035;-63
2023/04/27 07:35:18;;;;;;;0.00;0.00;;;;;;;;;;4788199;29;20492;-63
2023/04/27 07:37:45;;;;;;;0.00;0.00;;;;;;;;;;4786565;29;20053;-67
2023/04/27 07:40:15;;;;;;;0.00;0.00;;;;;;;;;;4806386;29;20035;-69
2023/04/27 07:42:41;;;;;;;0.00;0.00;;;;;;;;;;4806552;29;20027;-70
2023/04/27 07:45:10;;;;;;;0.00;0.00;;;;;;;;;;4806165;29;20496;-63
2023/04/27 07:47:36;;;;;;;0.00;0.00;;;;;;;;;;4805900;29;20022;-63
2023/04/27 07:50:03;;;;;;;0.00;0.00;;;;;;;;;;4805855;29;20038;-71
2023/04/27 07:52:29;;;;;;;0.00;0.00;;;;;;;;;;4799019;29;20169;-70
2023/04/27 07:54:55;;;;;;;0.00;0.00;;;;;;;;;;4781830;30;20212;-68
2023/04/27 07:57:22;;;;;;;0.00;0.00;;;;;;;;;;4779148;30;20111;-70
2023/04/27 07:59:48;;;;;;;0.00;0.00;;;;;;;;;;4777723;30;20032;-71
2023/04/27 08:02:14;;;;;;;0.00;0.00;;;;;;;;;;4778329;30;20040;-66
2023/04/27 08:04:40;;;;;;;0.00;0.00;;;;;;;;;;4776691;30;20036;-66
2023/04/27 08:07:06;;;;;;;0.00;0.00;;;;;;;;;;4778217;30;20027;-63
2023/04/27 08:09:32;;;;;;;0.00;0.00;;;;;;;;;;4778459;29;20055;-62
2023/04/27 08:11:58;;;;;;;0.00;0.00;;;;;;;;;;4776792;30;20093;-62
2023/04/27 08:14:24;;;;;;;0.00;0.00;;;;;;;;;;4778167;30;20020;-65
2023/04/27 08:16:53;;;;;;;0.00;0.00;;;;;;;;;;4778551;30;20497;-71
2023/04/27 08:19:19;;;;;;;0.00;0.00;;;;;;;;;;4776898;30;20028;-66
2023/04/27 08:21:45;;;;;;;0.00;0.00;;;;;;;;;;4777746;30;20027;-70
2023/04/27 08:24:11;;;;;;;0.00;0.00;;;;;;;;;;4774503;30;20052;-66
2023/04/27 08:26:38;;;;;;;0.00;0.00;;;;;;;;;;4769766;30;20481;-67
2023/04/27 08:29:04;;;;;;;0.00;0.00;;;;;;;;;;4769478;30;20767;-65
2023/04/27 08:31:30;;;;;;;0.00;0.00;;;;;;;;;;4769280;30;20028;-66
2023/04/27 08:33:57;;;;;;;0.00;0.00;;;;;;;;;;4769979;30;20035;-62
2023/04/27 08:36:25;;;;;;;0.00;0.00;;;;;;;;;;4769844;30;20093;-70
2023/04/27 08:38:51;;;;;;;0.00;0.00;;;;;;;;;;4780688;30;20034;-72
2023/04/27 08:41:25;;;;;;;0.00;0.00;;;;;;;;;;4787401;30;20114;-75
2023/04/27 08:43:52;;;;;;;0.00;0.00;;;;;;;;;;4787443;30;20050;-73
2023/04/27 08:46:22;;;;;;;0.00;0.00;;;;;;;;;;4787445;30;20050;-76
2023/04/27 08:48:52;;;;;;;0.00;0.00;;;;;;;;;;4787525;30;20530;-76
2023/04/27 08:51:18;;;;;;;0.00;0.00;;;;;;;;;;4787100;30;20039;-65
2023/04/27 08:53:49;;;;;;;0.00;0.00;;;;;;;;;;4803414;29;20035;-72
2023/04/27 08:56:15;;;;;;;0.00;0.00;;;;;;;;;;4805309;29;20042;-67
2023/04/27 08:58:42;;;;;;;0.00;0.00;;;;;;;;;;4805209;29;20031;-72
2023/04/27 09:01:08;;;;;;;0.00;0.00;;;;;;;;;;4805037;29;20084;-65
2023/04/27 09:03:34;;;;;;;0.00;0.00;;;;;;;;;;4805170;29;20043;-72
2023/04/27 09:06:01;;;;;;;0.00;0.00;;;;;;;;;;4804620;29;20050;-67
2023/04/27 09:08:27;;;;;;;0.00;0.00;;;;;;;;;;4804982;29;20523;-72
2023/04/27 09:10:54;;;;;;;0.00;0.00;;;;;;;;;;4805113;29;20050;-70
2023/04/27 09:13:20;;;;;;;0.00;0.00;;;;;;;;;;4804893;29;20109;-72
2023/04/27 09:15:50;;;;;;;0.00;0.00;;;;;;;;;;4804588;29;20410;-62
2023/04/27 09:18:16;;;;;;;0.00;0.00;;;;;;;;;;4804764;29;20046;-70
2023/04/27 09:20:43;;;;;;;0.00;0.00;;;;;;;;;;4804118;29;20034;-70
2023/04/27 09:23:09;;;;;;;0.00;0.00;;;;;;;;;;4804861;29;20062;-62
2023/04/27 09:25:35;;;;;;;0.00;0.00;;;;;;;;;;4804930;29;20050;-66
2023/04/27 09:28:01;;;;;;;0.00;0.00;;;;;;;;;;4804128;29;20035;-63
2023/04/27 09:30:28;;;;;;;0.00;0.00;;;;;;;;;;4780188;29;20154;-67
2023/04/27 09:32:56;;;;;;;0.00;0.00;;;;;;;;;;4779388;30;20537;-68
2023/04/27 09:35:30;;;;;;;0.00;0.00;;;;;;;;;;4777328;30;20040;-65
2023/04/27 09:37:59;;;;;;;0.00;0.00;;;;;;;;;;4776561;30;20362;-66
2023/04/27 09:40:28;;;;;;;0.00;0.00;;;;;;;;;;4782785;30;20035;-70
2023/04/27 09:42:59;;;;;;;0.00;0.00;;;;;;;;;;4780161;30;20123;-65
2023/04/27 09:45:25;;;;;;;0.00;0.00;;;;;;;;;;4776424;30;20181;-65
2023/04/27 09:47:51;;;;;;;0.00;0.00;;;;;;;;;;4775829;30;20647;-70
2023/04/27 09:50:21;;;;;;;0.00;0.00;;;;;;;;;;4783019;30;20044;-70
2023/04/27 09:52:56;;;;;;;0.00;0.00;;;;;;;;;;4788416;30;20414;-71
2023/04/27 09:55:27;;;;;;;0.00;0.00;;;;;;;;;;4786320;30;20441;-70
2023/04/27 09:57:53;;;;;;;0.00;0.00;;;;;;;;;;4786105;30;20066;-66
2023/04/27 10:00:31;;;;;;;0.00;0.00;;;;;;;;;;4786497;30;20559;-71
2023/04/27 10:03:09;;;;;;;0.00;0.00;;;;;;;;;;4786307;30;20032;-70
2023/04/27 10:05:54;;;;;;;0.00;0.00;;;;;;;;;;4786097;30;20035;-66
2023/04/27 10:08:21;;;;;;;0.00;0.00;;;;;;;;;;4785853;30;20031;-65
2023/04/27 10:10:48;;;;;;;0.00;0.00;;;;;;;;;;4786187;30;20059;-71
2023/04/27 10:13:21;;;;;;;0.00;0.00;;;;;;;;;;4786305;30;20035;-70
2023/04/27 10:15:47;;;;;;;0.00;0.00;;;;;;;;;;4786265;30;20032;-71
2023/04/27 10:18:24;;;;;;;0.00;0.00;;;;;;;;;;4785931;30;20035;-71
2023/04/27 10:20:51;;;;;;;0.00;0.00;;;;;;;;;;4785957;30;20043;-69
2023/04/27 10:23:24;;;;;;;0.00;0.00;;;;;;;;;;4786103;30;20128;-69
2023/04/27 10:25:51;;;;;;;0.00;0.00;;;;;;;;;;4786122;30;20035;-71
2023/04/27 10:28:19;;;;;;;0.00;0.00;;;;;;;;;;4786281;30;20031;-69
2023/04/27 10:30:47;;;;;;;0.00;0.00;;;;;;;;;;4785958;30;20035;-69
2023/04/27 10:33:16;;;;;;;0.00;0.00;;;;;;;;;;4784824;30;20114;-70
2023/04/27 10:35:44;;;;;;;0.00;0.00;;;;;;;;;;4785855;30;20039;-70
2023/04/27 10:38:16;;;;;;;1999.90;999.90;;;;;;;;;;4785891;30;20077;-66
2023/04/27 10:40:55;;;;;;;1999.90;999.90;;;;;;;;;;4785832;30;20054;-69
2023/04/27 10:43:24;;;;;;;1999.90;999.90;;;;;;;;;;4785210;30;20039;-70
2023/04/27 10:45:50;;;;;;;1999.90;999.90;;;;;;;;;;4784709;30;20106;-70
2023/04/27 10:48:16;;;;;;;1999.90;999.90;;;;;;;;;;4785365;30;20066;-69
2023/04/27 10:50:46;;;;;;;1999.90;999.90;;;;;;;;;;4785670;30;20028;-70
2023/04/27 10:53:16;;;;;;;1999.90;999.90;;;;;;;;;;4785451;30;20535;-69
2023/04/27 10:55:42;;;;;;;1999.90;999.90;;;;;;;;;;4785555;30;20505;-66
2023/04/27 10:58:08;;;;;;;1999.90;999.90;;;;;;;;;;4785722;30;20039;-70
2023/04/27 11:00:35;;;;;;;1999.90;999.90;;;;;;;;;;4769359;30;20463;-71
2023/04/27 11:03:13;;;;;;;1999.90;999.90;;;;;;;;;;4785831;30;20028;-66
2023/04/27 11:05:39;;;;;;;1999.90;999.90;;;;;;;;;;4785721;30;20489;-70
2023/04/27 11:08:05;;;;;;;1999.90;999.90;;;;;;;;;;4785350;30;20031;-68
2023/04/27 11:10:32;;;;;;;0.00;0.00;;;;;;;;;;4785448;30;20108;-69
2023/04/27 11:12:58;;;;;;;0.00;0.00;;;;;;;;;;4785567;30;20102;-68
2023/04/27 11:15:25;;;;;;;0.00;0.00;;;;;;;;;;4785426;30;20074;-69
2023/04/27 11:17:51;;;;;;;0.00;0.00;;;;;;;;;;4785235;30;20034;-66
2023/04/27 11:20:24;;;;;;;0.00;0.00;;;;;;;;;;4784903;30;20039;-70
2023/04/27 11:22:52;;;;;;;0.00;0.00;;;;;;;;;;4787916;30;20051;-69
2023/04/27 11:25:27;;;;;;;0.00;0.00;;;;;;;;;;4761547;30;20047;-71
2023/04/27 11:27:53;;;;;;;0.00;0.00;;;;;;;;;;4774019;30;20051;-67
2023/04/27 11:30:23;;;;;;;0.00;0.00;;;;;;;;;;4771160;29;20094;-69
2023/04/27 11:32:50;;;;;;;0.00;0.00;;;;;;;;;;4776243;30;20038;-70
2023/04/27 11:35:17;;;;;;;0.00;0.00;;;;;;;;;;4774359;30;20036;-70
2023/04/27 11:37:43;;;;;;;0.00;0.00;;;;;;;;;;4776373;30;20028;-66
2023/04/27 11:40:10;;;;;;;0.00;0.00;;;;;;;;;;4776010;30;20052;-70
2023/04/27 11:42:36;;;;;;;0.00;0.00;;;;;;;;;;4777949;30;20039;-71
2023/04/27 11:45:06;;;;;;;0.00;0.00;;;;;;;;;;4778301;29;20043;-69
2023/04/27 11:47:34;;;;;;;0.00;0.00;;;;;;;;;;4777873;30;20032;-65
2023/04/27 11:50:03;;;;;;;0.00;0.00;;;;;;;;;;4778937;30;20455;-70
2023/04/27 11:52:33;;;;;;;0.00;0.00;;;;;;;;;;4776652;30;20084;-64
2023/04/27 11:54:59;;;;;;;0.00;0.00;;;;;;;;;;4778152;30;20503;-69
2023/04/27 11:57:26;;;;;;;0.00;0.00;;;;;;;;;;4776044;30;20042;-70
2023/04/27 11:59:53;;;;;;;0.00;0.00;;;;;;;;;;4779732;30;20480;-68
2023/04/27 12:02:22;;;;;;;0.00;0.00;;;;;;;;;;4788257;30;20044;-69
2023/04/27 12:04:49;;;;;;;0.00;0.00;;;;;;;;;;4788377;30;20062;-67
2023/04/27 12:07:15;;;;;;;0.00;0.00;;;;;;;;;;4788283;30;20024;-69
2023/04/27 12:09:42;;;;;;;0.00;0.00;;;;;;;;;;4787961;30;20059;-69
2023/04/27 12:12:08;;;;;;;0.00;0.00;;;;;;;;;;4779697;30;20047;-69
2023/04/27 12:14:34;;;;;;;0.00;0.00;;;;;;;;;;4777836;30;20039;-71
2023/04/27 12:17:00;;;;;;;0.00;0.00;;;;;;;;;;4784536;30;20050;-69
2023/04/27 12:19:26;;;;;;;0.00;0.00;;;;;;;;;;4787708;30;20076;-68
2023/04/27 12:21:53;;;;;;;0.00;0.00;;;;;;;;;;4787717;29;20118;-69
2023/04/27 12:24:19;;;;;;;0.00;0.00;;;;;;;;;;4787878;30;20051;-70
2023/04/27 12:26:45;;;;;;;0.00;0.00;;;;;;;;;;4788107;30;20032;-69
2023/04/27 12:29:11;;;;;;;0.00;0.00;;;;;;;;;;4787804;30;20066;-70
2023/04/27 12:31:38;;;;;;;0.00;0.00;;;;;;;;;;4787953;30;20039;-67
2023/04/27 12:34:04;;;;;;;0.00;0.00;;;;;;;;;;4788007;30;20035;-70
2023/04/27 12:36:31;;;;;;;0.00;0.00;;;;;;;;;;4787655;30;20065;-68
2023/04/27 12:38:59;;;;;;;0.00;0.00;;;;;;;;;;4787716;30;20508;-70
2023/04/27 12:41:25;;;;;;;0.00;0.00;;;;;;;;;;4787870;30;20046;-71
2023/04/27 12:43:51;;;;;;;0.00;0.00;;;;;;;;;;4787739;30;20404;-67
2023/04/27 12:46:17;;;;;;;0.00;0.00;;;;;;;;;;4787630;30;20031;-68
2023/04/27 12:48:43;;;;;;;0.00;0.00;;;;;;;;;;4787426;30;20058;-68
2023/04/27 12:51:10;;;;;;;0.00;0.00;;;;;;;;;;4787328;30;20043;-68
2023/04/27 12:53:36;;;;;;;0.00;0.00;;;;;;;;;;4787471;30;20372;-70
2023/04/27 12:56:03;;;;;;;0.00;0.00;;;;;;;;;;4786500;29;20038;-69
2023/04/27 12:58:30;;;;;;;0.00;0.00;;;;;;;;;;4787204;30;20031;-68
2023/04/27 13:00:56;;;;;;;0.00;0.00;;;;;;;;;;4787266;30;20027;-68
2023/04/27 13:03:23;;;;;;;0.00;0.00;;;;;;;;;;4787132;30;20130;-71
2023/04/27 13:05:49;;;;;;;0.00;0.00;;;;;;;;;;4786955;30;20027;-70
2023/04/27 13:08:15;;;;;;;0.00;0.00;;;;;;;;;;4787040;29;20035;-68
2023/04/27 13:10:41;;;;;;;0.00;0.00;;;;;;;;;;4786946;30;20059;-68
2023/04/27 13:13:08;;;;;;;0.00;0.00;;;;;;;;;;4786781;30;20070;-70
2023/04/27 13:15:35;;;;;;;0.00;0.00;;;;;;;;;;4786918;30;20063;-70
2023/04/27 13:18:04;;;;;;;0.00;0.00;;;;;;;;;;4786648;30;20041;-69
2023/04/27 13:20:30;;;;;;;0.00;0.00;;;;;;;;;;4787128;30;20026;-69
2023/04/27 13:22:56;;;;;;;0.00;0.00;;;;;;;;;;4786297;29;20108;-69
2023/04/27 13:25:22;;;;;;;0.00;0.00;;;;;;;;;;4771465;29;20035;-68
2023/04/27 13:27:49;;;;;;;0.00;0.00;;;;;;;;;;4804981;29;20488;-72
2023/04/27 13:30:15;;;;;;;0.00;0.00;;;;;;;;;;4804946;29;20341;-71
2023/04/27 13:32:41;;;;;;;0.00;0.00;;;;;;;;;;4804763;29;20046;-66
2023/04/27 13:35:07;;;;;;;0.00;0.00;;;;;;;;;;4804980;29;20031;-69
2023/04/27 13:37:33;;;;;;;0.00;0.00;;;;;;;;;;4804145;29;20118;-72
2023/04/27 13:39:59;;;;;;;0.00;0.00;;;;;;;;;;4804376;29;20042;-68
2023/04/27 13:42:28;;;;;;;0.00;0.00;;;;;;;;;;4804435;29;20043;-70
2023/04/27 13:44:55;;;;;;;0.00;0.00;;;;;;;;;;4804483;29;20080;-67
2023/04/27 13:47:21;;;;;;;0.00;0.00;;;;;;;;;;4804536;29;20027;-72
2023/04/27 13:49:47;;;;;;;0.00;0.00;;;;;;;;;;4804140;29;20162;-68
2023/04/27 13:52:13;;;;;;;0.00;0.00;;;;;;;;;;4775931;29;20111;-73
2023/04/27 13:54:39;;;;;;;0.00;0.00;;;;;;;;;;4789744;29;20051;-68
2023/04/27 13:57:05;;;;;;;0.00;0.00;;;;;;;;;;4775016;30;20032;-63
2023/04/27 13:59:31;;;;;;;0.00;0.00;;;;;;;;;;4782226;30;20038;-64
2023/04/27 14:01:57;;;;;;;0.00;0.00;;;;;;;;;;4771158;30;20035;-66
2023/04/27 14:04:23;;;;;;;0.00;0.00;;;;;;;;;;4780186;30;20703;-66
2023/04/27 14:06:50;;;;;;;0.00;0.00;;;;;;;;;;4776304;29;20027;-68
2023/04/27 14:09:16;;;;;;;0.00;0.00;;;;;;;;;;4750626;30;20055;-65
2023/04/27 14:11:42;;;;;;;0.00;0.00;;;;;;;;;;4764843;30;20050;-68
2023/04/27 14:14:08;;;;;;;0.00;0.00;;;;;;;;;;4754151;30;20130;-65
2023/04/27 14:16:34;;;;;;;0.00;0.00;;;;;;;;;;4760962;30;20107;-69
2023/04/27 14:19:00;;;;;;;0.00;0.00;;;;;;;;;;4760140;30;20043;-63
2023/04/27 14:21:26;;;;;;;0.00;0.00;;;;;;;;;;4764770;30;20027;-67
2023/04/27 14:23:52;;;;;;;0.00;0.00;;;;;;;;;;4752827;30;20043;-64
2023/04/27 14:26:18;;;;;;;0.00;0.00;;;;;;;;;;4762484;30;20111;-64
2023/04/27 14:28:45;;;;;;;0.00;0.00;;;;;;;;;;4757702;30;20450;-67
2023/04/27 14:31:11;;;;;;;0.00;0.00;;;;;;;;;;4756084;30;20032;-63
2023/04/27 14:33:37;;;;;;;0.00;0.00;;;;;;;;;;4749819;30;20433;-64
2023/04/27 14:36:03;;;;;;;0.00;0.00;;;;;;;;;;4752790;30;20465;-66
2023/04/27 14:38:29;;;;;;;0.00;0.00;;;;;;;;;;4761109;30;20043;-65